Details for United Airlines at KSFO




Go Back


Latest METAR
Local Time

KSFO 211356Z 15005KT 10SM FEW030 BKN080 BKN110 07/02 A3018 RMK AO2 SLP221 T00670022

21/02/2018, 06:52:03

Description
Results
United Airlines Logo
Number of Pilots based at KSFO
0 Pilots Based here
Number of United Airlines Flights Departed from KSFO
2 Flights Departed
Number of United Airlines Flights Arrived at KSFO
2 Flights Arrived
Number of United Airlines Schedules Departing from KSFO
540 Schedules
Number of United Airlines Schedules Arriving at KSFO
546 Schedules
Number of United Airlines Schedules Departing from KSFO availible today
277 Schedules Today
Number of United Airlines Schedules Arriving at KSFO availible today
284 Schedules Today
Average Landing Rate at KSFO
-274 fpm
United Airlines Average Landing Rate at KSFO
-326 fpm
Total Fuel Purchased at KSFO by United Airlines
7,594.09 kgs / 16,741.93 lbs

Pilots Based at KSFO


Pilot ID
Pilot Name
Pilot Rank
No. of Flights
No. of Flying Hours
There are no pilots assigned to this hub!   Will you be the first?
Content